Appam, North Dakota
Current Conditions -  °F | °C
As of 11:55 AM on Saturday 20 Dec 2014 (Local Time) from KD50 Reporting Station
Broken Clouds Broken Clouds  
Wind Chill: 20°   Ceiling: 3500
Heat Index: 28°   Visibility: 10mi
Dew Point: 28°   Wind: 9mph
Humidity: 100%   Direction: 210°SSW
Pressure: 29.8"   Gusts: NA
Location:  48.59°N, 103.406°W
Report Text: KD50 201755Z AUTO 21008KT 10SM FEW019 SCT029 BKN035 M02/M02 A2980 RMK AO2
Loading
Personal Weather Stations






























Interactive Weather Map New forecast layout! Learn more

10-Day Weather Forecast

Advertisements
Track Severe Weather on mobile